Time;durP1;ratioP1;P1;durP2;ratioP2;P2;SDS_P1;SDS_P2;PMS_P1;PMS_P2;Temp;Humidity;BMP_temperature;BMP_pressure;BME280_temperature;BME280_humidity;BME280_pressure;Samples;Min_cycle;Max_cycle;Signal;HPM_P1;HPM_P2
2023/03/22 00:01:18;;;;;;;10.90;8.63;;;13.90;1.00;;;;;;5068008;28;21012;-58
2023/03/22 00:03:45;;;;;;;12.17;10.17;;;14.00;1.00;;;;;;5062887;28;20486;-58
2023/03/22 00:06:11;;;;;;;11.40;8.87;;;14.00;1.00;;;;;;5063420;28;20509;-58
2023/03/22 00:08:37;;;;;;;10.37;9.30;;;14.00;1.00;;;;;;5061388;28;20450;-58
2023/03/22 00:11:04;;;;;;;9.93;9.03;;;14.00;1.00;;;;;;5065843;28;20456;-58
2023/03/22 00:13:30;;;;;;;9.93;8.93;;;14.10;1.00;;;;;;5055682;28;20465;-58
2023/03/22 00:15:56;;;;;;;13.80;9.80;;;14.00;1.00;;;;;;5056398;28;20463;-58
2023/03/22 00:18:22;;;;;;;10.87;9.77;;;14.00;1.00;;;;;;5057249;28;20473;-58
2023/03/22 00:20:53;;;;;;;11.50;10.00;;;13.90;1.00;;;;;;5056621;28;20462;-58
2023/03/22 00:23:20;;;;;;;10.00;9.00;;;13.80;1.00;;;;;;5053469;28;20442;-58
2023/03/22 00:25:46;;;;;;;11.87;9.27;;;13.80;1.00;;;;;;5067205;28;20541;-57
2023/03/22 00:28:13;;;;;;;12.50;9.27;;;13.70;1.00;;;;;;5072388;28;20459;-58
2023/03/22 00:30:39;;;;;;;10.17;9.27;;;13.70;1.00;;;;;;5070219;28;20473;-58
2023/03/22 00:33:05;;;;;;;10.27;9.37;;;13.60;1.00;;;;;;5062099;28;20454;-57
2023/03/22 00:35:32;;;;;;;12.43;9.70;;;13.50;1.00;;;;;;5056541;28;20450;-58
2023/03/22 00:38:05;;;;;;;10.80;9.67;;;13.50;1.00;;;;;;5055266;28;20424;-58
2023/03/22 00:40:32;;;;;;;10.73;9.63;;;13.40;1.00;;;;;;5051554;28;20446;-58
2023/03/22 00:42:58;;;;;;;11.07;9.47;;;13.40;1.00;;;;;;5057236;28;20916;-58
2023/03/22 00:45:24;;;;;;;10.70;9.70;;;13.40;1.00;;;;;;5056990;28;20454;-58
2023/03/22 00:47:49;;;;;;;10.40;9.40;;;13.40;1.00;;;;;;5066584;28;20450;-57
2023/03/22 00:50:15;;;;;;;11.47;9.63;;;13.40;1.00;;;;;;5062201;28;20207;-58
2023/03/22 00:52:41;;;;;;;12.00;10.47;;;13.30;1.00;;;;;;5069978;28;20192;-58
2023/03/22 00:55:07;;;;;;;10.90;9.73;;;13.30;1.00;;;;;;5058786;28;20338;-58
2023/03/22 00:57:32;;;;;;;11.27;10.17;;;13.20;1.00;;;;;;5070334;28;20187;-58
2023/03/22 00:59:58;;;;;;;11.13;8.93;;;13.20;1.00;;;;;;5076572;28;21008;-57
2023/03/22 01:02:28;;;;;;;10.93;9.83;;;13.30;1.00;;;;;;5076552;28;20241;-58
2023/03/22 01:04:54;;;;;;;13.83;10.17;;;13.10;1.00;;;;;;5068842;28;20200;-58
2023/03/22 01:07:22;;;;;;;10.63;9.53;;;13.10;1.00;;;;;;5066098;28;20940;-58
2023/03/22 01:09:49;;;;;;;9.70;8.70;;;13.10;1.00;;;;;;5064271;28;20975;-57
2023/03/22 01:12:15;;;;;;;13.10;10.60;;;13.10;1.00;;;;;;5065025;28;20872;-58
2023/03/22 01:14:41;;;;;;;11.03;9.67;;;13.10;1.00;;;;;;5068598;28;20478;-59
2023/03/22 01:17:07;;;;;;;9.40;8.37;;;13.00;1.00;;;;;;5069156;28;20538;-58
2023/03/22 01:19:34;;;;;;;11.07;9.97;;;13.10;1.00;;;;;;5064808;28;20477;-58
2023/03/22 01:21:59;;;;;;;10.43;9.23;;;13.00;1.00;;;;;;5066648;28;20683;-58
2023/03/22 01:24:25;;;;;;;9.40;8.50;;;12.90;1.00;;;;;;5069059;28;20428;-58
2023/03/22 01:26:51;;;;;;;12.47;8.10;;;12.80;1.00;;;;;;5069227;28;20214;-58
2023/03/22 01:29:16;;;;;;;25.50;9.10;;;12.80;1.00;;;;;;5068122;28;20200;-58
2023/03/22 01:31:42;;;;;;;10.07;8.77;;;12.70;1.00;;;;;;5071705;28;20180;-57
2023/03/22 01:34:08;;;;;;;9.53;8.63;;;12.70;1.00;;;;;;5071880;28;20353;-58
2023/03/22 01:36:35;;;;;;;8.90;7.80;;;12.70;1.00;;;;;;5066999;28;20486;-58
2023/03/22 01:39:01;;;;;;;8.70;7.80;;;12.60;1.00;;;;;;5067892;28;20190;-58
2023/03/22 01:41:27;;;;;;;9.97;7.80;;;12.50;1.00;;;;;;5066395;28;20458;-57
2023/03/22 01:44:06;;;;;;;10.83;8.67;;;12.50;1.00;;;;;;5067563;28;20450;-58
2023/03/22 01:46:32;;;;;;;12.80;8.73;;;12.50;1.00;;;;;;5067044;28;20191;-58
2023/03/22 01:48:59;;;;;;;11.70;8.80;;;12.40;1.00;;;;;;5062194;28;20449;-57
2023/03/22 01:51:26;;;;;;;10.07;8.43;;;12.30;1.00;;;;;;5056230;28;20321;-58
2023/03/22 01:53:56;;;;;;;12.57;8.97;;;12.30;1.00;;;;;;5064558;28;20489;-57
2023/03/22 01:56:25;;;;;;;9.60;8.57;;;12.30;1.00;;;;;;5062340;28;20442;-57
2023/03/22 01:58:53;;;;;;;8.47;7.63;;;12.20;1.00;;;;;;5069021;28;20496;-58
2023/03/22 02:01:20;;;;;;;10.70;9.03;;;12.10;1.00;;;;;;5062842;28;20438;-58
2023/03/22 02:03:57;;;;;;;10.53;9.30;;;12.10;1.00;;;;;;5065566;28;20450;-58
2023/03/22 02:06:24;;;;;;;11.23;8.73;;;12.10;1.00;;;;;;5066251;28;20540;-57
2023/03/22 02:08:51;;;;;;;11.47;8.50;;;12.10;1.00;;;;;;5061924;28;20454;-58
2023/03/22 02:11:26;;;;;;;9.90;8.40;;;12.00;1.00;;;;;;5063690;28;20446;-58
2023/03/22 02:14:02;;;;;;;9.97;8.97;;;11.90;1.00;;;;;;5062005;28;20500;-57
2023/03/22 02:16:44;;;;;;;9.60;8.47;;;11.90;1.00;;;;;;5066527;28;20998;-58
2023/03/22 02:19:31;;;;;;;13.33;7.77;;;11.90;1.00;;;;;;5059573;28;21094;-57
2023/03/22 02:22:24;;;;;;;12.10;9.03;;;11.90;1.00;;;;;;5059407;28;20483;-58
2023/03/22 02:25:27;;;;;;;10.67;8.10;;;11.90;1.00;;;;;;5066997;28;20450;-58
2023/03/22 02:28:11;;;;;;;9.27;7.47;;;11.90;1.00;;;;;;5064327;28;21067;-57
2023/03/22 02:30:36;;;;;;;10.57;7.77;;;11.80;1.00;;;;;;5066233;28;20452;-57
2023/03/22 02:33:05;;;;;;;9.47;8.10;;;11.80;1.00;;;;;;5064683;28;20525;-58
2023/03/22 02:35:54;;;;;;;8.37;7.47;;;11.70;1.00;;;;;;5062951;28;20184;-57
2023/03/22 02:38:51;;;;;;;11.87;8.10;;;11.70;1.00;;;;;;5071048;28;20781;-58
2023/03/22 02:41:37;;;;;;;8.30;7.43;;;11.70;1.00;;;;;;5060691;28;20450;-57
2023/03/22 02:44:24;;;;;;;8.60;6.90;;;11.80;1.00;;;;;;5059678;28;20473;-57
2023/03/22 02:47:01;;;;;;;8.10;6.77;;;11.30;1.00;;;;;;5060513;28;20412;-58
2023/03/22 02:49:40;;;;;;;8.33;6.57;;;11.60;1.00;;;;;;5060764;28;20469;-58
2023/03/22 02:52:18;;;;;;;8.47;7.10;;;11.50;1.00;;;;;;5061917;28;20452;-58
2023/03/22 02:55:06;;;;;;;12.33;6.40;;;11.50;1.00;;;;;;5063838;28;20971;-57
2023/03/22 02:57:35;;;;;;;9.87;7.43;;;11.60;1.00;;;;;;5067451;28;20442;-58
2023/03/22 03:00:11;;;;;;;8.43;6.90;;;11.60;1.00;;;;;;5064274;28;20998;-58
2023/03/22 03:02:42;;;;;;;9.30;6.93;;;11.50;1.00;;;;;;5057900;28;20483;-57
2023/03/22 03:05:11;;;;;;;8.37;7.53;;;11.40;1.00;;;;;;5072385;28;20446;-58
2023/03/22 03:07:38;;;;;;;7.73;6.70;;;11.40;1.00;;;;;;5056819;28;20465;-57
2023/03/22 03:10:05;;;;;;;6.63;5.93;;;11.40;1.00;;;;;;5065328;28;20449;-57
2023/03/22 03:12:31;;;;;;;8.87;7.80;;;11.30;1.00;;;;;;5061147;28;20449;-57
2023/03/22 03:14:56;;;;;;;7.33;6.30;;;11.20;1.00;;;;;;5067137;28;20462;-57
2023/03/22 03:17:34;;;;;;;8.03;7.20;;;11.20;1.00;;;;;;5066493;28;20195;-57
2023/03/22 03:20:17;;;;;;;10.17;7.97;;;11.10;1.00;;;;;;5062900;28;20184;-57
2023/03/22 03:22:57;;;;;;;7.27;6.57;;;11.10;1.00;;;;;;5061151;28;21404;-57
2023/03/22 03:25:26;;;;;;;9.03;8.13;;;11.10;1.00;;;;;;5069165;28;20767;-57
2023/03/22 03:28:08;;;;;;;8.50;7.30;;;11.00;1.00;;;;;;5081707;28;20429;-58
2023/03/22 03:30:42;;;;;;;9.43;7.33;;;10.90;1.00;;;;;;5068981;28;20481;-56
2023/03/22 03:33:12;;;;;;;11.50;8.93;;;11.00;1.00;;;;;;5070573;28;20810;-57
2023/03/22 03:35:43;;;;;;;9.77;7.00;;;10.90;1.00;;;;;;5063641;28;20545;-58
2023/03/22 03:38:17;;;;;;;6.80;6.00;;;10.90;1.00;;;;;;5065472;28;20472;-56
2023/03/22 03:41:05;;;;;;;11.37;6.90;;;10.90;1.00;;;;;;5065823;28;20445;-57
2023/03/22 03:43:33;;;;;;;6.80;5.50;;;11.00;1.00;;;;;;5068492;28;20445;-57
2023/03/22 03:45:59;;;;;;;8.93;6.60;;;10.90;1.00;;;;;;5056807;28;20450;-59
2023/03/22 03:48:31;;;;;;;9.07;6.27;;;10.90;1.00;;;;;;5067521;28;20442;-58
2023/03/22 03:50:58;;;;;;;6.60;5.77;;;10.90;1.00;;;;;;5063222;28;20461;-57
2023/03/22 03:53:24;;;;;;;8.00;5.97;;;10.90;1.00;;;;;;5065369;28;20474;-57
2023/03/22 03:55:49;;;;;;;5.77;5.10;;;10.90;1.00;;;;;;5061323;28;20926;-57
2023/03/22 03:58:15;;;;;;;6.37;5.77;;;10.80;1.00;;;;;;5063937;28;20195;-57
2023/03/22 04:00:42;;;;;;;6.00;5.40;;;10.90;1.00;;;;;;5076128;28;20658;-56
2023/03/22 04:03:08;;;;;;;6.60;5.93;;;10.80;1.00;;;;;;5068124;28;20188;-57
2023/03/22 04:05:33;;;;;;;8.13;6.30;;;10.70;1.00;;;;;;5063323;28;20442;-58
2023/03/22 04:07:59;;;;;;;9.40;6.37;;;10.70;1.00;;;;;;5073639;28;20447;-56
2023/03/22 04:10:25;;;;;;;7.30;6.43;;;10.70;1.00;;;;;;5069671;28;20192;-58
2023/03/22 04:12:50;;;;;;;7.93;6.30;;;10.60;1.00;;;;;;5064670;28;20529;-58
2023/03/22 04:15:16;;;;;;;6.90;6.13;;;10.60;1.00;;;;;;5065967;28;20215;-57
2023/03/22 04:17:42;;;;;;;8.33;6.90;;;10.50;1.00;;;;;;5074921;28;20278;-57
2023/03/22 04:20:09;;;;;;;11.57;7.00;;;10.50;1.00;;;;;;5075967;28;20641;-57
2023/03/22 04:22:39;;;;;;;8.20;7.10;;;10.50;1.00;;;;;;5065107;28;20183;-57
2023/03/22 04:25:10;;;;;;;11.43;8.37;;;10.50;1.00;;;;;;5061062;28;20917;-59
2023/03/22 04:27:36;;;;;;;8.13;7.27;;;10.50;1.00;;;;;;5076605;28;20536;-57
2023/03/22 04:30:03;;;;;;;9.53;7.60;;;10.50;1.00;;;;;;5068435;28;20582;-57
2023/03/22 04:32:29;;;;;;;8.30;6.90;;;10.40;1.00;;;;;;5068864;28;20848;-57
2023/03/22 04:34:55;;;;;;;9.03;7.90;;;10.50;1.00;;;;;;5065320;28;20478;-57
2023/03/22 04:37:25;;;;;;;8.43;7.60;;;10.40;1.00;;;;;;5068410;28;20192;-57
2023/03/22 04:39:51;;;;;;;7.37;6.60;;;10.50;1.00;;;;;;5065728;28;20188;-57
2023/03/22 04:42:17;;;;;;;8.27;7.30;;;10.50;1.00;;;;;;5065545;28;20437;-57
2023/03/22 04:44:43;;;;;;;7.13;5.80;;;10.50;1.00;;;;;;5069098;28;20511;-58
2023/03/22 04:47:08;;;;;;;10.10;6.37;;;10.50;1.00;;;;;;5068878;28;20195;-57
2023/03/22 04:49:34;;;;;;;7.10;6.33;;;10.50;1.00;;;;;;5066078;28;20191;-57
2023/03/22 04:52:00;;;;;;;8.77;6.40;;;10.60;1.00;;;;;;5068365;28;20202;-57
2023/03/22 04:54:25;;;;;;;11.60;6.17;;;10.60;1.00;;;;;;5065036;28;20228;-57
2023/03/22 04:56:51;;;;;;;5.80;5.07;;;10.60;1.00;;;;;;5063499;28;20234;-57
2023/03/22 04:59:19;;;;;;;7.27;6.63;;;10.50;1.00;;;;;;5067884;28;20569;-58
2023/03/22 05:01:49;;;;;;;7.90;5.40;;;10.50;1.00;;;;;;5068532;28;20449;-57
2023/03/22 05:04:15;;;;;;;7.53;5.60;;;10.30;1.00;;;;;;5062527;28;21055;-57
2023/03/22 05:06:41;;;;;;;6.83;6.00;;;10.30;1.00;;;;;;5066948;28;20445;-57
2023/03/22 05:09:07;;;;;;;12.80;6.30;;;10.30;1.00;;;;;;5062569;28;20485;-58
2023/03/22 05:11:32;;;;;;;7.30;5.50;;;10.30;1.00;;;;;;5060834;28;20196;-58
2023/03/22 05:13:58;;;;;;;7.73;5.70;;;10.30;1.00;;;;;;5068093;28;20473;-58
2023/03/22 05:16:24;;;;;;;6.03;5.47;;;10.30;1.00;;;;;;5071091;28;20278;-58
2023/03/22 05:18:53;;;;;;;6.07;5.33;;;10.30;1.00;;;;;;5070615;28;20939;-57
2023/03/22 05:21:27;;;;;;;7.80;5.53;;;10.30;1.00;;;;;;5068881;28;20625;-57
2023/03/22 05:23:55;;;;;;;5.70;4.70;;;10.40;1.00;;;;;;5073000;28;20442;-57
2023/03/22 05:26:23;;;;;;;6.00;5.33;;;10.50;1.00;;;;;;5077400;28;21046;-58
2023/03/22 05:28:49;;;;;;;5.83;5.27;;;10.50;1.00;;;;;;5067565;28;20546;-57
2023/03/22 05:31:15;;;;;;;5.83;5.00;;;10.50;1.00;;;;;;5065091;28;20462;-58
2023/03/22 05:33:42;;;;;;;5.63;5.13;;;10.50;1.00;;;;;;5067512;28;20470;-58
2023/03/22 05:36:10;;;;;;;7.07;5.53;;;10.60;1.00;;;;;;5064089;28;20571;-57
2023/03/22 05:38:35;;;;;;;5.67;5.07;;;10.60;1.00;;;;;;5068184;28;20453;-59
2023/03/22 05:41:01;;;;;;;5.50;5.00;;;10.70;1.00;;;;;;5053889;28;20941;-58
2023/03/22 05:43:27;;;;;;;7.77;5.73;;;10.80;1.00;;;;;;5060821;28;20199;-58
2023/03/22 05:45:52;;;;;;;7.63;5.93;;;10.80;1.00;;;;;;5061936;28;20204;-57
2023/03/22 05:48:18;;;;;;;7.07;6.30;;;10.90;1.00;;;;;;5066333;28;20187;-59
2023/03/22 05:50:44;;;;;;;5.87;5.27;;;11.00;1.00;;;;;;5064942;28;20593;-60
2023/03/22 05:53:10;;;;;;;8.77;5.40;;;11.00;1.00;;;;;;5062086;28;20212;-59
2023/03/22 05:55:36;;;;;;;6.90;5.13;;;11.10;1.00;;;;;;5065695;28;20442;-59
2023/03/22 05:58:04;;;;;;;4.83;4.43;;;11.10;1.00;;;;;;5064065;28;20438;-59
2023/03/22 06:00:30;;;;;;;6.50;5.83;;;11.30;1.00;;;;;;5066993;28;20441;-59
2023/03/22 06:03:02;;;;;;;7.30;5.50;;;11.30;1.00;;;;;;5061902;28;20438;-58
2023/03/22 06:05:31;;;;;;;6.63;5.30;;;11.40;1.00;;;;;;5061833;28;20466;-59
2023/03/22 06:07:58;;;;;;;7.60;4.97;;;11.40;1.00;;;;;;5061923;28;20442;-58
2023/03/22 06:10:25;;;;;;;5.43;4.80;;;11.40;1.00;;;;;;5064491;28;20450;-60
2023/03/22 06:12:51;;;;;;;6.73;5.00;;;11.50;1.00;;;;;;5056525;28;20446;-59
2023/03/22 06:15:17;;;;;;;8.80;5.50;;;11.60;1.00;;;;;;5058442;28;20470;-59
2023/03/22 06:17:43;;;;;;;6.23;5.43;;;11.70;1.00;;;;;;5063942;28;20453;-58
2023/03/22 06:20:12;;;;;;;7.50;5.17;;;11.80;1.00;;;;;;5064958;28;20194;-59
2023/03/22 06:22:38;;;;;;;6.47;5.80;;;11.90;1.00;;;;;;5064857;28;20569;-59
2023/03/22 06:25:05;;;;;;;7.67;5.80;;;11.90;1.00;;;;;;5067212;28;20445;-59
2023/03/22 06:27:31;;;;;;;7.93;5.60;;;12.10;1.00;;;;;;5074023;28;20969;-59
2023/03/22 06:29:57;;;;;;;7.00;5.00;;;12.10;1.00;;;;;;5066255;28;20507;-58
2023/03/22 06:32:23;;;;;;;6.27;5.40;;;12.20;1.00;;;;;;5056763;28;20446;-60
2023/03/22 06:34:55;;;;;;;7.70;6.23;;;12.30;1.00;;;;;;5064019;28;20619;-59
2023/03/22 06:37:22;;;;;;;7.10;5.20;;;12.30;1.00;;;;;;5058732;28;20457;-60
2023/03/22 06:39:47;;;;;;;6.03;5.43;;;12.50;1.00;;;;;;5066094;28;20442;-58
2023/03/22 06:42:14;;;;;;;7.40;5.83;;;12.60;1.00;;;;;;5062092;28;20456;-59
2023/03/22 06:44:42;;;;;;;6.57;5.50;;;12.70;1.00;;;;;;5060729;28;20675;-58
2023/03/22 06:47:09;;;;;;;6.57;5.97;;;12.80;1.00;;;;;;5062212;28;20550;-59
2023/03/22 06:49:34;;;;;;;10.10;6.37;;;12.90;1.00;;;;;;5063715;28;20906;-58
2023/03/22 06:52:00;;;;;;;6.90;5.80;;;13.00;1.00;;;;;;5060403;28;20439;-59
2023/03/22 06:54:26;;;;;;;7.83;5.53;;;13.20;1.00;;;;;;5061660;28;20280;-60
2023/03/22 06:56:52;;;;;;;5.87;5.30;;;13.30;1.00;;;;;;5063122;28;20446;-60
2023/03/22 06:59:17;;;;;;;7.73;6.23;;;13.40;1.00;;;;;;5060708;28;20180;-59
2023/03/22 07:01:43;;;;;;;12.37;6.80;;;13.40;1.00;;;;;;5065774;28;20180;-59
2023/03/22 07:04:09;;;;;;;8.10;5.73;;;13.50;1.00;;;;;;5056966;28;20194;-59
2023/03/22 07:06:34;;;;;;;7.70;5.57;;;13.60;1.00;;;;;;5063032;28;20184;-59
2023/03/22 07:09:01;;;;;;;7.37;5.47;;;13.60;1.00;;;;;;5062334;28;20313;-59
2023/03/22 07:11:26;;;;;;;5.73;5.10;;;13.70;1.00;;;;;;5065735;28;20195;-58
2023/03/22 07:13:53;;;;;;;9.03;6.50;;;13.70;1.00;;;;;;5061398;28;20475;-59
2023/03/22 07:16:19;;;;;;;5.83;5.33;;;13.70;1.00;;;;;;5066186;28;20198;-59
2023/03/22 07:18:45;;;;;;;7.30;5.93;;;13.70;1.00;;;;;;5062089;28;20438;-58
2023/03/22 07:21:11;;;;;;;6.87;6.20;;;13.70;1.00;;;;;;5063968;28;20471;-59
2023/03/22 07:23:37;;;;;;;6.00;5.40;;;13.60;1.00;;;;;;5068712;28;20462;-60
2023/03/22 07:26:02;;;;;;;8.90;6.27;;;13.60;1.00;;;;;;5066088;28;20442;-57
2023/03/22 07:28:28;;;;;;;6.30;5.70;;;13.60;1.00;;;;;;5068343;28;20184;-58
2023/03/22 07:31:08;;;;;;;8.20;6.60;;;13.70;1.00;;;;;;5070758;28;20203;-58
2023/03/22 07:33:34;;;;;;;8.13;5.50;;;13.60;1.00;;;;;;5065871;28;20196;-59
2023/03/22 07:36:00;;;;;;;6.80;6.10;;;13.70;1.00;;;;;;5066418;28;20535;-58
2023/03/22 07:38:25;;;;;;;8.40;6.60;;;13.80;1.00;;;;;;5063985;28;20191;-59
2023/03/22 07:40:55;;;;;;;10.23;7.20;;;14.00;1.00;;;;;;5068848;28;20187;-59
2023/03/22 07:43:21;;;;;;;12.33;6.73;;;14.20;1.00;;;;;;5064249;28;20188;-58
2023/03/22 07:45:50;;;;;;;10.13;7.20;;;14.20;1.00;;;;;;5066434;28;20491;-59
2023/03/22 07:48:20;;;;;;;10.03;6.23;;;14.30;1.00;;;;;;5063123;28;20450;-59
2023/03/22 07:50:46;;;;;;;7.03;5.60;;;14.40;1.00;;;;;;5066315;28;20462;-59
2023/03/22 07:53:12;;;;;;;7.00;6.30;;;14.60;1.00;;;;;;5068148;28;20474;-60
2023/03/22 07:55:38;;;;;;;6.57;5.97;;;14.80;1.00;;;;;;5067465;28;20222;-59
2023/03/22 07:58:04;;;;;;;8.80;6.50;;;15.10;1.00;;;;;;5069912;28;20188;-58
2023/03/22 08:00:30;;;;;;;7.37;6.53;;;15.20;1.00;;;;;;5065062;28;23066;-59
2023/03/22 08:02:56;;;;;;;8.17;6.33;;;15.30;1.00;;;;;;5065976;28;20485;-59
2023/03/22 08:05:22;;;;;;;9.97;6.73;;;15.50;1.00;;;;;;5066349;28;20459;-58
2023/03/22 08:07:48;;;;;;;7.20;5.80;;;15.60;1.00;;;;;;5064751;28;20218;-59
2023/03/22 08:10:14;;;;;;;8.77;6.60;;;15.70;1.00;;;;;;5068630;28;20279;-59
2023/03/22 08:12:40;;;;;;;8.07;5.63;;;15.80;1.00;;;;;;5066641;28;20507;-59
2023/03/22 08:15:07;;;;;;;8.13;6.33;;;15.80;1.00;;;;;;5069422;28;20469;-59
2023/03/22 08:17:32;;;;;;;6.83;5.80;;;15.90;1.00;;;;;;5068766;28;20188;-59
2023/03/22 08:19:58;;;;;;;7.80;6.27;;;16.10;1.00;;;;;;5068127;28;20476;-59
2023/03/22 08:22:24;;;;;;;7.17;5.63;;;16.30;1.00;;;;;;5068945;28;20180;-59
2023/03/22 08:24:53;;;;;;;7.87;5.93;;;16.50;1.00;;;;;;5071868;28;20191;-59
2023/03/22 08:27:19;;;;;;;6.07;5.47;;;16.50;1.00;;;;;;5070589;28;20450;-59
2023/03/22 08:29:47;;;;;;;6.80;4.10;;;16.80;1.00;;;;;;5070578;28;20439;-58
2023/03/22 08:32:13;;;;;;;4.80;3.33;;;16.90;1.00;;;;;;5070257;28;20454;-58
2023/03/22 08:34:40;;;;;;;7.57;4.40;;;16.70;99.90;;;;;;5071574;28;20501;-58
2023/03/22 08:37:07;;;;;;;4.03;3.60;;;16.80;99.90;;;;;;5070968;28;20446;-58
2023/03/22 08:39:33;;;;;;;8.27;5.70;;;16.90;99.90;;;;;;5069801;28;20446;-59
2023/03/22 08:41:59;;;;;;;5.60;3.07;;;17.00;99.90;;;;;;5071443;28;20445;-59
2023/03/22 08:44:25;;;;;;;7.07;3.47;;;17.20;99.90;;;;;;5069426;28;20649;-60
2023/03/22 08:46:51;;;;;;;7.33;3.33;;;17.20;99.90;;;;;;5071150;28;20541;-59
2023/03/22 08:49:16;;;;;;;3.17;2.87;;;17.50;99.90;;;;;;5068965;28;20450;-58
2023/03/22 08:51:42;;;;;;;4.47;2.90;;;17.50;99.90;;;;;;5066691;28;20441;-58
2023/03/22 08:54:08;;;;;;;6.30;3.17;;;17.80;99.90;;;;;;5071349;28;20254;-58
2023/03/22 08:56:36;;;;;;;3.80;3.10;;;18.00;99.90;;;;;;5067243;28;20271;-58
2023/03/22 08:59:07;;;;;;;4.00;3.07;;;18.20;99.90;;;;;;5067842;28;20188;-59
2023/03/22 09:01:33;;;;;;;4.40;2.70;;;18.30;99.90;;;;;;5075148;28;20482;-58
2023/03/22 09:03:59;;;;;;;6.00;2.90;;;18.10;99.90;;;;;;5069798;28;20449;-59
2023/03/22 09:06:25;;;;;;;5.67;3.27;;;17.80;99.90;;;;;;5080010;28;20446;-59
2023/03/22 09:08:55;;;;;;;3.00;2.50;;;17.40;99.90;;;;;;5063698;28;20192;-59
2023/03/22 09:11:21;;;;;;;2.93;2.27;;;17.20;99.90;;;;;;5069579;28;20420;-59
2023/03/22 09:13:47;;;;;;;3.30;2.50;;;17.20;99.90;;;;;;5070950;28;20462;-59
2023/03/22 09:16:13;;;;;;;5.63;2.27;;;17.40;99.90;;;;;;5068420;28;20446;-58
2023/03/22 09:18:39;;;;;;;3.27;2.10;;;17.60;99.90;;;;;;5064605;28;20521;-58
2023/03/22 09:21:07;;;;;;;4.10;1.93;;;17.60;99.90;;;;;;5077177;28;20499;-58
2023/03/22 09:23:34;;;;;;;3.00;2.30;;;17.60;99.90;;;;;;5074477;28;20435;-58
2023/03/22 09:26:01;;;;;;;4.50;3.13;;;17.80;99.90;;;;;;5070136;28;20934;-58
2023/03/22 09:28:27;;;;;;;4.50;2.43;;;17.90;99.90;;;;;;5068917;28;20421;-58
2023/03/22 09:30:53;;;;;;;6.00;3.13;;;18.10;99.90;;;;;;5071019;28;20527;-58
2023/03/22 09:33:19;;;;;;;5.43;2.40;;;18.20;99.90;;;;;;5070774;28;21002;-60
2023/03/22 09:35:44;;;;;;;3.70;2.10;;;18.40;99.90;;;;;;5070603;28;20333;-59
2023/03/22 09:38:11;;;;;;;3.67;1.90;;;18.70;99.90;;;;;;5070370;28;20310;-60
2023/03/22 09:40:45;;;;;;;3.13;2.57;;;18.80;99.90;;;;;;5070771;28;20257;-58
2023/03/22 09:43:13;;;;;;;3.43;1.80;;;19.00;99.90;;;;;;5066100;28;20977;-59
2023/03/22 09:45:42;;;;;;;3.03;1.30;;;18.90;99.90;;;;;;5068923;28;20431;-58
2023/03/22 09:48:26;;;;;;;3.13;1.70;;;19.10;99.90;;;;;;5070587;28;20452;-60
2023/03/22 09:50:53;;;;;;;1.70;1.30;;;19.00;99.90;;;;;;5070057;28;20446;-59
2023/03/22 09:53:21;;;;;;;1.73;1.10;;;19.00;99.90;;;;;;5069650;28;20477;-59
2023/03/22 09:55:51;;;;;;;3.07;1.00;;;19.10;99.90;;;;;;5064073;28;20428;-59
2023/03/22 09:58:45;;;;;;;1.83;0.83;;;19.20;99.90;;;;;;5065223;28;20914;-59
2023/03/22 10:01:30;;;;;;;3.80;1.57;;;18.70;99.90;;;;;;5062050;28;20432;-59
2023/03/22 10:04:25;;;;;;;2.90;1.30;;;18.50;99.90;;;;;;5060645;28;20462;-59
2023/03/22 10:07:18;;;;;;;2.50;0.90;;;18.30;99.90;;;;;;5062668;28;20535;-59
2023/03/22 10:10:07;;;;;;;2.70;1.60;;;18.20;99.90;;;;;;5059752;28;20450;-59
2023/03/22 10:12:48;;;;;;;2.00;1.30;;;18.50;99.90;;;;;;5071291;28;20455;-58
2023/03/22 10:15:19;;;;;;;1.93;1.53;;;18.20;99.90;;;;;;5067805;28;21127;-58
2023/03/22 10:17:51;;;;;;;1.90;1.23;;;18.20;99.90;;;;;;5068755;28;20450;-58
2023/03/22 10:20:28;;;;;;;4.57;1.53;;;18.00;99.90;;;;;;5075944;28;20414;-59
2023/03/22 10:22:57;;;;;;;1.70;1.30;;;17.80;99.90;;;;;;5074552;28;20446;-58
2023/03/22 10:25:32;;;;;;;1.47;1.37;;;17.80;99.90;;;;;;5067619;28;20433;-58
2023/03/22 10:27:58;;;;;;;3.23;1.30;;;17.70;99.90;;;;;;5068964;28;20416;-59
2023/03/22 10:30:32;;;;;;;5.50;1.83;;;17.60;99.90;;;;;;5071012;28;20445;-58
2023/03/22 10:33:11;;;;;;;2.23;1.77;;;17.70;99.90;;;;;;5078370;28;20200;-58
2023/03/22 10:35:37;;;;;;;2.33;1.37;;;17.80;99.90;;;;;;5060850;28;20977;-58
2023/03/22 10:38:06;;;;;;;2.00;1.40;;;18.20;99.90;;;;;;5068133;28;20504;-58
2023/03/22 10:40:36;;;;;;;3.73;2.57;;;18.30;99.90;;;;;;5061939;28;20446;-59
2023/03/22 10:43:24;;;;;;;1.70;1.50;;;18.60;99.90;;;;;;5062321;28;20425;-58
2023/03/22 10:45:53;;;;;;;3.20;1.60;;;18.80;99.90;;;;;;5065200;28;20488;-59
2023/03/22 10:48:32;;;;;;;2.50;1.60;;;18.80;99.90;;;;;;5070672;28;20879;-60
2023/03/22 10:50:59;;;;;;;1.40;1.27;;;18.70;99.90;;;;;;5067054;28;20423;-59
2023/03/22 10:53:40;;;;;;;2.70;1.10;;;18.40;99.90;;;;;;5071099;28;20455;-59
2023/03/22 10:56:12;;;;;;;1.60;1.20;;;18.00;99.90;;;;;;5078977;28;20501;-58
2023/03/22 10:58:38;;;;;;;1.40;1.03;;;18.50;99.90;;;;;;5065318;28;20438;-58
2023/03/22 11:01:10;;;;;;;1.70;1.30;;;18.20;99.90;;;;;;5063567;28;20454;-61
2023/03/22 11:03:39;;;;;;;1.50;1.40;;;18.60;99.90;;;;;;5065838;28;20610;-59
2023/03/22 11:06:05;;;;;;;3.60;1.53;;;18.60;99.90;;;;;;5083121;28;20453;-60
2023/03/22 11:08:43;;;;;;;2.47;1.20;;;18.40;99.90;;;;;;5065433;28;20968;-57
2023/03/22 11:11:25;;;;;;;1.53;1.40;;;18.70;99.90;;;;;;5068061;28;20542;-59
2023/03/22 11:14:14;;;;;;;3.60;1.40;;;18.70;99.90;;;;;;5068313;28;20462;-58
2023/03/22 11:16:46;;;;;;;2.17;1.40;;;18.90;99.90;;;;;;5065747;28;20507;-59
2023/03/22 11:19:22;;;;;;;3.00;1.60;;;18.80;99.90;;;;;;5071046;28;20449;-58
2023/03/22 11:21:50;;;;;;;1.60;1.50;;;18.50;99.90;;;;;;5067575;28;20522;-58
2023/03/22 11:24:18;;;;;;;2.93;1.27;;;18.80;99.90;;;;;;5071417;28;20843;-59
2023/03/22 11:27:05;;;;;;;1.90;1.50;;;18.90;99.90;;;;;;5070655;28;20684;-58
2023/03/22 11:29:46;;;;;;;2.97;1.33;;;18.90;99.90;;;;;;5070184;28;20441;-58
2023/03/22 11:32:26;;;;;;;1.80;1.53;;;19.00;99.90;;;;;;5081460;28;20408;-58
2023/03/22 11:35:10;;;;;;;1.80;1.30;;;19.40;99.90;;;;;;5071068;28;20557;-58
2023/03/22 11:37:48;;;;;;;2.90;1.10;;;20.00;99.90;;;;;;5068163;28;20465;-59
2023/03/22 11:40:24;;;;;;;1.20;1.00;;;20.30;99.90;;;;;;5070462;28;20408;-59
2023/03/22 11:43:09;;;;;;;1.63;1.53;;;20.40;99.90;;;;;;5069070;28;20520;-58
2023/03/22 11:45:39;;;;;;;1.50;0.90;;;20.50;99.90;;;;;;5054495;28;20930;-59
2023/03/22 11:48:08;;;;;;;1.27;1.00;;;20.40;99.90;;;;;;5067382;28;20446;-58
2023/03/22 11:50:37;;;;;;;1.93;0.83;;;20.50;99.90;;;;;;5063485;28;20470;-59
2023/03/22 11:53:10;;;;;;;3.63;1.00;;;20.60;99.90;;;;;;5066962;28;20790;-59
2023/03/22 11:55:36;;;;;;;1.50;1.13;;;20.50;99.90;;;;;;5072933;28;20474;-59
2023/03/22 11:58:03;;;;;;;1.77;1.23;;;20.30;99.90;;;;;;5068639;28;20457;-59
2023/03/22 12:00:32;;;;;;;1.30;1.20;;;20.10;99.90;;;;;;5058503;28;20466;-58
2023/03/22 12:03:01;;;;;;;1.67;1.10;;;20.20;99.90;;;;;;5064207;28;20468;-59
2023/03/22 12:05:32;;;;;;;1.20;1.03;;;20.10;99.90;;;;;;5064533;28;20458;-58
2023/03/22 12:08:05;;;;;;;1.90;1.07;;;19.90;99.90;;;;;;5089903;28;20456;-59
2023/03/22 12:10:42;;;;;;;1.10;0.90;;;19.90;99.90;;;;;;5066772;28;20455;-57
2023/03/22 12:13:38;;;;;;;2.03;1.40;;;20.10;99.90;;;;;;5069940;28;20556;-59
2023/03/22 12:16:06;;;;;;;1.60;1.23;;;20.50;99.90;;;;;;5066568;28;20449;-57
2023/03/22 12:18:46;;;;;;;1.10;1.00;;;20.60;99.90;;;;;;5062527;28;20465;-59
2023/03/22 12:21:11;;;;;;;1.90;1.13;;;20.90;99.90;;;;;;5065449;28;20438;-59
2023/03/22 12:23:38;;;;;;;1.67;1.27;;;21.20;99.90;;;;;;5065043;28;20967;-59
2023/03/22 12:26:14;;;;;;;1.10;0.90;;;21.20;99.90;;;;;;5064797;28;20188;-59
2023/03/22 12:29:03;;;;;;;6.00;3.90;;;21.10;99.90;;;;;;5064768;28;20416;-59
2023/03/22 12:31:39;;;;;;;3.57;1.37;;;21.10;99.90;;;;;;5069254;28;20438;-59
2023/03/22 12:34:15;;;;;;;2.37;1.20;;;21.10;99.90;;;;;;5074953;28;20542;-58
2023/03/22 12:36:50;;;;;;;1.63;1.20;;;21.10;99.90;;;;;;5068507;28;20450;-59
2023/03/22 12:39:29;;;;;;;1.40;1.30;;;21.10;99.90;;;;;;5057481;28;20464;-59
2023/03/22 12:41:59;;;;;;;1.47;1.07;;;21.10;99.90;;;;;;5067010;28;20536;-59
2023/03/22 12:44:40;;;;;;;2.23;1.60;;;21.20;99.90;;;;;;5067681;28;20453;-59
2023/03/22 12:47:27;;;;;;;3.03;1.40;;;20.90;99.90;;;;;;5066880;28;20466;-59
2023/03/22 12:50:11;;;;;;;1.80;1.40;;;20.70;99.90;;;;;;5071577;28;20834;-60
2023/03/22 12:52:41;;;;;;;2.57;1.47;;;20.70;99.90;;;;;;5071256;28;20506;-59
2023/03/22 12:55:11;;;;;;;2.40;1.10;;;20.80;99.90;;;;;;5071156;28;20444;-60
2023/03/22 12:57:37;;;;;;;3.90;1.43;;;20.90;99.90;;;;;;5071588;28;20884;-59
2023/03/22 13:00:14;;;;;;;1.77;1.17;;;20.80;99.90;;;;;;5069203;28;20545;-58
2023/03/22 13:02:47;;;;;;;1.17;1.07;;;20.80;99.90;;;;;;5070044;28;20445;-59
2023/03/22 13:05:13;;;;;;;2.17;1.30;;;20.90;99.90;;;;;;5071592;28;20951;-60